This is the latest recevied weather packets stored in our database for station/object KB1JLI. If no packets are shown the sender has not sent any weather packets the latest 1 day(s).
| Time | Temp. | Humidity | Pressure | Rain* | Wind** | Luminosity | Snow |
|---|---|---|---|---|---|---|---|
| 1777984720 | 17.78° C | 63% | 1009.9 hPa | 0 mm | 0.89 m/s, 189° | 218 W/m² | - |
| 1777984416 | 18.33° C | 62% | 1009.9 hPa | 0 mm | 1.79 m/s, 209° | 237 W/m² | - |
| 1777984112 | 18.33° C | 61% | 1009.9 hPa | 0 mm | 0 m/s | 257 W/m² | - |
| 1777983810 | 17.78° C | 62% | 1010 hPa | 0 mm | 0.45 m/s, 196° | 391 W/m² | - |
| 1777983507 | 17.22° C | 64% | 1009.9 hPa | 0 mm | 2.68 m/s, 208° | 317 W/m² | - |
| 1777983204 | 17.22° C | 64% | 1009.8 hPa | 0 mm | 1.34 m/s, 197° | 149 W/m² | - |
| 1777982900 | 17.22° C | 64% | 1009.8 hPa | 0 mm | 0.89 m/s, 208° | 210 W/m² | - |
| 1777982596 | 16.67° C | 65% | 1009.7 hPa | 0 mm | 1.34 m/s, 203° | 149 W/m² | - |
| 1777982294 | 16.67° C | 65% | 1009.7 hPa | 0 mm | 3.13 m/s, 175° | 254 W/m² | - |
| 1777981992 | 16.11° C | 68% | 1009.7 hPa | 0 mm | 0.45 m/s, 165° | 168 W/m² | - |
| 1777981689 | 16.11° C | 67% | 1009.7 hPa | 0 mm | 1.34 m/s, 209° | 201 W/m² | - |
| 1777981385 | 15.56° C | 68% | 1009.7 hPa | 0 mm | 0.45 m/s, 152° | 53 W/m² | - |
| 1777981083 | 15.56° C | 69% | 1009.7 hPa | 0 mm | 0 m/s | 179 W/m² | - |
| 1777980779 | 15.56° C | 69% | 1009.5 hPa | 0 mm | 0.45 m/s, 203° | 51 W/m² | - |
| 1777980474 | 15° C | 70% | 1009.6 hPa | 0 mm | 0.45 m/s, 177° | 49 W/m² | - |
| 1777980172 | 14.44° C | 71% | 1009.7 hPa | 0 mm | 0.45 m/s, 202° | 47 W/m² | - |
| 1777979867 | 14.44° C | 72% | 1009.6 hPa | 0 mm | 0.89 m/s, 169° | 43 W/m² | - |
| 1777979563 | 13.89° C | 73% | 1009.5 hPa | 0 mm | 1.79 m/s, 192° | 44 W/m² | - |
| 1777979259 | 13.89° C | 73% | 1009.8 hPa | 0 mm | 0.89 m/s, 125° | 43 W/m² | - |
| 1777978957 | 13.89° C | 74% | 1009.7 hPa | 0 mm | 1.79 m/s, 180° | 39 W/m² | - |
| 1777978653 | 13.33° C | 74% | 1009.8 hPa | 0 mm | 0.45 m/s, 97° | 38 W/m² | - |
| 1777978349 | 13.33° C | 74% | 1009.7 hPa | 0 mm | 2.24 m/s, 182° | 35 W/m² | - |
| 1777978046 | 13.33° C | 74% | 1009.6 hPa | 0 mm | 1.79 m/s, 206° | 34 W/m² | - |
| 1777977743 | 13.33° C | 74% | 1009.6 hPa | 0 mm | 0.89 m/s, 182° | 31 W/m² | - |
| 1777977439 | 12.78° C | 75% | 1009.8 hPa | 0 mm | 0.89 m/s, 164° | 28 W/m² | - |
* Rain latest hour (hover to see other rain measurements)
** Current wind speed in m/s (hover to see current wind gust speed)